createdAt,value
2023-01-29T00:00:27.198Z,7.90
2023-01-29T00:03:16.809Z,8.90
2023-01-29T00:05:45.800Z,6.60
2023-01-29T00:08:14.896Z,7.07
2023-01-29T00:10:44.386Z,7.47
2023-01-29T00:13:13.375Z,6.23
2023-01-29T00:15:42.694Z,6.73
2023-01-29T00:18:11.680Z,5.47
2023-01-29T00:20:44.038Z,6.17
2023-01-29T00:23:12.995Z,5.70
2023-01-29T00:25:42.039Z,5.63
2023-01-29T00:28:11.855Z,6.20
2023-01-29T00:30:41.451Z,6.40
2023-01-29T00:33:11.500Z,5.60
2023-01-29T00:35:41.683Z,5.30
2023-01-29T00:38:11.027Z,5.00
2023-01-29T00:40:59.033Z,4.67
2023-01-29T00:43:46.561Z,4.83
2023-01-29T00:46:15.530Z,4.33
2023-01-29T00:48:44.446Z,4.57
2023-01-29T00:51:13.426Z,4.93
2023-01-29T00:53:42.457Z,4.90
2023-01-29T00:56:11.389Z,5.93
2023-01-29T00:58:40.430Z,5.33
2023-01-29T01:01:10.160Z,5.90
2023-01-29T01:03:41.747Z,6.03
2023-01-29T01:06:11.818Z,5.87
2023-01-29T01:08:59.465Z,4.57
2023-01-29T01:11:29.029Z,5.87
2023-01-29T01:14:01.699Z,5.37
2023-01-29T01:16:32.918Z,5.45
2023-01-29T01:19:02.845Z,5.43
2023-01-29T01:21:34.941Z,4.50
2023-01-29T01:24:05.393Z,5.07
2023-01-29T01:26:34.599Z,4.90
2023-01-29T01:29:04.899Z,4.93
2023-01-29T01:31:34.233Z,5.13
2023-01-29T01:34:05.106Z,5.20
2023-01-29T01:36:35.006Z,4.80
2023-01-29T01:39:06.936Z,5.10
2023-01-29T01:41:36.331Z,5.20
2023-01-29T01:44:08.025Z,5.50
2023-01-29T01:46:38.387Z,5.77
2023-01-29T01:49:16.323Z,5.70
2023-01-29T01:51:49.534Z,5.60
2023-01-29T01:54:24.936Z,5.87
2023-01-29T01:57:04.611Z,5.15
2023-01-29T01:59:34.417Z,5.77
2023-01-29T02:02:24.814Z,6.27
2023-01-29T02:05:12.842Z,5.43
2023-01-29T02:08:04.270Z,6.40
2023-01-29T02:10:40.427Z,6.40
2023-01-29T02:13:09.803Z,7.10
2023-01-29T02:15:46.301Z,6.67
2023-01-29T02:18:17.236Z,6.73
2023-01-29T02:21:06.916Z,7.47
2023-01-29T02:24:11.455Z,6.90
2023-01-29T02:26:59.784Z,7.10
2023-01-29T02:29:39.487Z,6.43
2023-01-29T02:32:22.934Z,6.67
2023-01-29T02:35:25.166Z,7.53
2023-01-29T02:38:01.991Z,7.60
2023-01-29T02:40:38.147Z,7.43
2023-01-29T02:43:24.859Z,6.43
2023-01-29T02:46:06.399Z,7.07
2023-01-29T02:48:44.386Z,7.30
2023-01-29T02:51:20.445Z,7.37
2023-01-29T02:53:58.027Z,7.27
2023-01-29T02:56:36.786Z,7.87
2023-01-29T02:59:13.241Z,7.67
2023-01-29T03:01:48.488Z,7.37
2023-01-29T03:04:32.069Z,7.33
2023-01-29T03:07:05.585Z,7.67
2023-01-29T03:09:38.915Z,7.87
2023-01-29T03:12:28.102Z,7.67
2023-01-29T03:15:13.947Z,7.03
2023-01-29T03:17:52.464Z,6.90
2023-01-29T03:20:31.714Z,7.13
2023-01-29T03:23:06.599Z,7.13
2023-01-29T03:25:57.524Z,6.87
2023-01-29T03:28:51.927Z,6.93
2023-01-29T03:31:41.047Z,6.63
2023-01-29T03:34:25.055Z,6.97
2023-01-29T03:37:02.103Z,7.40
2023-01-29T03:39:34.575Z,7.27
2023-01-29T03:42:12.900Z,6.77
2023-01-29T03:44:53.886Z,7.43
2023-01-29T03:47:40.267Z,6.60
2023-01-29T03:50:20.315Z,6.90
2023-01-29T03:52:59.803Z,6.87
2023-01-29T03:55:38.284Z,6.60
2023-01-29T03:58:21.521Z,6.77
2023-01-29T04:00:56.235Z,6.40
2023-01-29T04:03:34.438Z,6.90
2023-01-29T04:06:11.592Z,6.67
2023-01-29T04:08:59.821Z,7.27
2023-01-29T04:11:31.563Z,6.10
2023-01-29T04:14:01.569Z,7.30
2023-01-29T04:16:37.083Z,6.70
2023-01-29T04:19:25.062Z,6.70
2023-01-29T04:22:05.314Z,6.97
2023-01-29T04:24:35.948Z,7.27
2023-01-29T04:27:21.497Z,6.67
2023-01-29T04:30:07.366Z,6.13
2023-01-29T04:32:51.236Z,6.62
2023-01-29T04:35:31.993Z,7.23
2023-01-29T04:38:12.450Z,6.10
2023-01-29T04:40:52.417Z,6.63
2023-01-29T04:43:30.138Z,6.10
2023-01-29T04:46:19.733Z,6.40
2023-01-29T04:49:02.729Z,6.13
2023-01-29T04:51:41.915Z,6.30
2023-01-29T04:54:18.476Z,6.53
2023-01-29T04:56:55.887Z,6.87
2023-01-29T04:59:32.935Z,6.33
2023-01-29T05:02:03.923Z,6.43
2023-01-29T05:04:36.071Z,6.37
2023-01-29T05:07:08.660Z,6.80
2023-01-29T05:09:42.402Z,6.50
2023-01-29T05:12:14.638Z,7.43
2023-01-29T05:14:46.844Z,6.50
2023-01-29T05:17:18.939Z,6.73
2023-01-29T05:19:49.157Z,6.67
2023-01-29T05:22:22.556Z,6.47
2023-01-29T05:24:54.823Z,7.00
2023-01-29T05:27:55.138Z,7.07
2023-01-29T05:30:28.067Z,7.77
2023-01-29T05:32:57.709Z,7.33
2023-01-29T05:35:28.692Z,6.67
2023-01-29T05:37:59.950Z,7.03
2023-01-29T05:40:29.479Z,6.87
2023-01-29T05:42:59.389Z,7.63
2023-01-29T05:45:29.390Z,8.43
2023-01-29T05:47:59.409Z,7.97
2023-01-29T05:50:29.047Z,7.87
2023-01-29T05:53:00.146Z,8.10
2023-01-29T05:55:30.341Z,7.30
2023-01-29T05:58:00.566Z,7.30
2023-01-29T06:00:31.858Z,7.87
2023-01-29T06:03:01.070Z,8.27
2023-01-29T06:05:30.305Z,8.23
2023-01-29T06:08:01.630Z,8.13
2023-01-29T06:10:31.035Z,8.30
2023-01-29T06:13:00.643Z,8.73
2023-01-29T06:15:30.808Z,8.17
2023-01-29T06:18:00.809Z,7.60
2023-01-29T06:20:30.274Z,8.80
2023-01-29T06:23:02.455Z,8.27
2023-01-29T06:25:31.942Z,8.77
2023-01-29T06:28:01.074Z,8.07
2023-01-29T06:30:31.499Z,9.13
2023-01-29T06:33:02.304Z,8.33
2023-01-29T06:35:31.676Z,8.83
2023-01-29T06:38:01.065Z,9.03
2023-01-29T06:40:30.519Z,9.23
2023-01-29T06:43:01.817Z,8.67
2023-01-29T06:45:31.754Z,9.43
2023-01-29T06:48:01.765Z,9.25
2023-01-29T06:50:31.145Z,9.50
2023-01-29T06:53:01.335Z,9.23
2023-01-29T06:55:31.399Z,9.13
2023-01-29T06:58:04.845Z,9.70
2023-01-29T07:00:34.953Z,9.43
2023-01-29T07:03:04.411Z,8.50
2023-01-29T07:05:33.486Z,8.23
2023-01-29T07:08:02.844Z,9.60
2023-01-29T07:10:32.475Z,9.07
2023-01-29T07:13:01.718Z,8.60
2023-01-29T07:15:35.914Z,9.77
2023-01-29T07:18:11.755Z,7.93
2023-01-29T07:20:43.456Z,7.97
2023-01-29T07:23:13.923Z,8.00
2023-01-29T07:25:46.833Z,8.27
2023-01-29T07:28:18.090Z,8.33
2023-01-29T07:30:48.002Z,7.97
2023-01-29T07:33:19.710Z,7.87
2023-01-29T07:35:48.925Z,7.90
2023-01-29T07:38:17.972Z,7.60
2023-01-29T07:40:48.450Z,8.53
2023-01-29T07:43:17.452Z,9.47
2023-01-29T07:45:46.826Z,8.37
2023-01-29T07:48:24.597Z,7.37
2023-01-29T07:50:57.087Z,8.17
2023-01-29T07:53:27.918Z,7.70
2023-01-29T07:55:57.980Z,8.33
2023-01-29T07:58:27.609Z,7.77
2023-01-29T08:00:59.672Z,7.73
2023-01-29T08:03:29.055Z,7.90
2023-01-29T08:06:04.118Z,7.50
2023-01-29T08:08:33.096Z,8.13
2023-01-29T08:11:05.151Z,8.03
2023-01-29T08:13:37.170Z,8.47
2023-01-29T08:16:07.800Z,8.90
2023-01-29T08:18:38.291Z,9.20
2023-01-29T08:21:07.278Z,10.53
2023-01-29T08:23:36.339Z,8.97
2023-01-29T08:26:05.830Z,9.30
2023-01-29T08:28:34.796Z,10.13
2023-01-29T08:31:03.806Z,16.37
2023-01-29T08:33:39.180Z,16.50
2023-01-29T08:36:10.450Z,9.43
2023-01-29T08:38:39.452Z,7.80
2023-01-29T08:41:09.560Z,7.93
2023-01-29T08:43:39.278Z,9.37
2023-01-29T08:46:09.676Z,8.57
2023-01-29T08:48:38.718Z,8.57
2023-01-29T08:51:08.957Z,10.30
2023-01-29T08:53:38.298Z,11.10
2023-01-29T08:56:08.682Z,10.03
2023-01-29T08:58:37.550Z,9.80
2023-01-29T09:01:12.116Z,10.17
2023-01-29T09:03:43.235Z,10.60
2023-01-29T09:06:14.479Z,11.07
2023-01-29T09:08:43.416Z,12.37
2023-01-29T09:11:12.442Z,10.43
2023-01-29T09:13:41.376Z,10.00
2023-01-29T09:16:10.957Z,9.53
2023-01-29T09:18:39.958Z,8.27
2023-01-29T09:21:08.947Z,8.87
2023-01-29T09:23:37.954Z,8.00
2023-01-29T09:26:08.265Z,8.40
2023-01-29T09:28:39.514Z,9.20
2023-01-29T09:31:08.775Z,8.37
2023-01-29T09:33:37.884Z,7.90
2023-01-29T09:36:08.837Z,8.97
2023-01-29T09:38:37.752Z,14.17
2023-01-29T09:41:22.714Z,8.57
2023-01-29T09:43:58.885Z,10.27
2023-01-29T09:46:36.835Z,12.20
2023-01-29T09:49:12.712Z,10.50
2023-01-29T09:51:44.883Z,9.80
2023-01-29T09:54:19.402Z,9.43
2023-01-29T09:56:50.814Z,9.30
2023-01-29T09:59:25.066Z,8.73
2023-01-29T10:04:50.186Z,8.63
2023-01-29T10:07:45.549Z,9.57
2023-01-29T10:10:25.896Z,9.13
2023-01-29T10:13:02.741Z,9.00
2023-01-29T10:15:55.566Z,8.37
2023-01-29T10:18:53.326Z,9.47
2023-01-29T10:21:41.398Z,9.57
2023-01-29T10:24:21.679Z,8.80
2023-01-29T10:26:52.206Z,9.60
2023-01-29T10:29:21.892Z,9.30
2023-01-29T10:31:55.525Z,10.20
2023-01-29T10:34:34.113Z,7.75
2023-01-29T10:37:15.000Z,8.60
2023-01-29T10:39:44.217Z,8.80
2023-01-29T10:42:38.686Z,9.60
2023-01-29T10:45:22.668Z,8.90
2023-01-29T10:48:09.559Z,8.17
2023-01-29T10:50:50.898Z,7.92
2023-01-29T10:53:45.770Z,8.40
2023-01-29T10:58:59.900Z,8.73
2023-01-29T11:01:30.166Z,7.90
2023-01-29T11:04:03.319Z,8.60
2023-01-29T11:06:34.971Z,9.03
2023-01-29T11:09:11.218Z,10.00
2023-01-29T11:11:45.489Z,9.23
2023-01-29T11:14:21.878Z,9.87
2023-01-29T11:16:51.782Z,9.30
2023-01-29T11:19:38.548Z,10.37
2023-01-29T11:22:15.096Z,9.00
2023-01-29T11:24:44.863Z,8.70
2023-01-29T11:27:33.325Z,9.60
2023-01-29T11:30:03.214Z,9.50
2023-01-29T11:32:35.368Z,9.53
2023-01-29T11:35:19.813Z,9.73
2023-01-29T11:37:49.604Z,9.10
2023-01-29T11:40:39.517Z,9.47
2023-01-29T11:43:34.453Z,8.33
2023-01-29T11:46:12.304Z,9.15
2023-01-29T11:48:47.503Z,9.60
2023-01-29T11:51:32.508Z,8.83
2023-01-29T11:54:07.572Z,9.73
2023-01-29T11:56:44.145Z,9.43
2023-01-29T11:59:29.725Z,9.83
2023-01-29T12:02:30.280Z,9.93
2023-01-29T12:05:05.294Z,9.13
2023-01-29T12:07:40.999Z,10.93
2023-01-29T12:10:32.610Z,16.10
2023-01-29T12:13:29.947Z,62.00
2023-01-29T12:16:19.812Z,15.67
2023-01-29T12:18:55.534Z,11.83
2023-01-29T12:21:37.161Z,10.00
2023-01-29T12:24:26.696Z,11.77
2023-01-29T12:27:02.583Z,10.53
2023-01-29T12:29:43.132Z,10.93
2023-01-29T12:32:26.394Z,10.40
2023-01-29T12:35:01.953Z,10.60
2023-01-29T12:37:50.161Z,10.63
2023-01-29T12:40:25.919Z,10.40
2023-01-29T12:43:03.579Z,9.67
2023-01-29T12:45:34.659Z,9.43
2023-01-29T12:48:13.036Z,10.43
2023-01-29T12:50:42.137Z,11.50
2023-01-29T12:53:34.114Z,11.10
2023-01-29T12:56:14.902Z,11.07
2023-01-29T12:58:48.430Z,10.67
2023-01-29T13:01:30.754Z,11.95
2023-01-29T13:04:07.399Z,12.17
2023-01-29T13:06:51.438Z,11.90
2023-01-29T13:09:50.782Z,10.53
2023-01-29T13:12:30.145Z,12.83
2023-01-29T13:15:09.800Z,13.23
2023-01-29T13:17:50.330Z,13.37
2023-01-29T13:20:30.490Z,12.43
2023-01-29T13:23:15.685Z,12.53
2023-01-29T13:25:45.234Z,12.17
2023-01-29T13:28:24.907Z,12.07
2023-01-29T13:31:13.505Z,11.17
2023-01-29T13:33:52.397Z,13.23
2023-01-29T13:36:28.620Z,14.17
2023-01-29T13:39:04.982Z,34.20
2023-01-29T13:41:43.022Z,29.90
2023-01-29T13:44:27.779Z,75.47
2023-01-29T13:47:00.774Z,52.30
2023-01-29T13:49:42.867Z,62.90
2023-01-29T13:52:34.127Z,33.43
2023-01-29T13:55:06.852Z,17.17
2023-01-29T13:57:51.120Z,15.40
2023-01-29T14:00:59.859Z,14.20
2023-01-29T14:04:09.942Z,15.43
2023-01-29T14:07:00.359Z,13.80
2023-01-29T14:10:04.937Z,14.23
2023-01-29T14:12:45.362Z,14.63
2023-01-29T14:22:28.195Z,13.30
2023-01-29T14:25:01.772Z,13.40
2023-01-29T14:27:34.207Z,14.33
2023-01-29T14:30:09.267Z,16.07
2023-01-29T14:32:41.531Z,17.87
2023-01-29T14:35:20.404Z,15.70
2023-01-29T14:37:53.194Z,15.33
2023-01-29T14:40:29.560Z,14.73
2023-01-29T14:43:03.479Z,24.63
2023-01-29T14:45:36.098Z,21.45
2023-01-29T14:48:59.339Z,17.53
2023-01-29T14:51:43.033Z,15.30
2023-01-29T14:54:41.686Z,16.33
2023-01-29T14:57:17.811Z,17.67
2023-01-29T15:00:11.559Z,19.20
2023-01-29T15:02:59.862Z,18.93
2023-01-29T15:05:43.398Z,16.07
2023-01-29T15:08:23.246Z,19.23
2023-01-29T15:11:11.859Z,19.17
2023-01-29T15:13:50.676Z,21.67
2023-01-29T15:16:26.090Z,19.13
2023-01-29T15:19:04.621Z,18.67
2023-01-29T15:21:33.828Z,22.13
2023-01-29T15:24:13.448Z,23.97
2023-01-29T15:26:43.725Z,21.23
2023-01-29T15:29:25.057Z,18.17
2023-01-29T15:31:55.177Z,17.23
2023-01-29T15:34:25.691Z,18.70
2023-01-29T15:36:54.639Z,19.10
2023-01-29T15:39:27.430Z,22.80
2023-01-29T15:42:22.908Z,33.25
2023-01-29T15:44:54.399Z,24.80
2023-01-29T15:47:28.692Z,21.13
2023-01-29T15:49:58.034Z,20.80
2023-01-29T15:52:32.577Z,21.50
2023-01-29T15:55:06.766Z,21.13
2023-01-29T15:57:40.726Z,21.33
2023-01-29T16:00:23.394Z,21.47
2023-01-29T16:02:55.285Z,22.83
2023-01-29T16:05:29.502Z,24.20
2023-01-29T16:07:59.686Z,23.60
2023-01-29T16:10:31.131Z,21.83
2023-01-29T16:13:01.037Z,24.37
2023-01-29T16:15:32.824Z,23.27
2023-01-29T16:18:04.427Z,27.63
2023-01-29T16:20:39.891Z,25.33
2023-01-29T16:23:19.135Z,22.47
2023-01-29T16:25:49.618Z,23.20
2023-01-29T16:28:20.341Z,23.00
2023-01-29T16:30:57.840Z,24.07
2023-01-29T16:33:35.013Z,22.53
2023-01-29T16:36:11.476Z,22.87
2023-01-29T16:38:43.885Z,24.80
2023-01-29T16:41:30.934Z,22.40
2023-01-29T16:44:03.309Z,24.47
2023-01-29T16:46:39.078Z,22.23
2023-01-29T16:49:44.004Z,24.40
2023-01-29T16:52:20.425Z,24.27
2023-01-29T16:54:50.196Z,24.70
2023-01-29T16:57:27.950Z,23.00
2023-01-29T17:00:06.648Z,24.47
2023-01-29T17:02:39.130Z,26.77
2023-01-29T17:05:19.981Z,23.67
2023-01-29T17:07:57.056Z,25.20
2023-01-29T17:10:36.039Z,26.90
2023-01-29T17:13:08.520Z,26.90
2023-01-29T17:15:47.992Z,24.07
2023-01-29T17:18:41.046Z,31.47
2023-01-29T17:21:28.311Z,27.35
2023-01-29T17:24:13.047Z,44.60
2023-01-29T17:26:43.786Z,35.43
2023-01-29T17:29:18.418Z,26.90
2023-01-29T17:31:48.010Z,43.40
2023-01-29T17:34:18.328Z,28.13
2023-01-29T17:36:47.216Z,27.33
2023-01-29T17:39:18.660Z,25.93
2023-01-29T17:41:50.161Z,24.80
2023-01-29T17:44:19.492Z,23.47
2023-01-29T17:46:48.966Z,24.47
2023-01-29T17:49:26.255Z,24.47
2023-01-29T17:51:56.676Z,25.57
2023-01-29T17:54:26.926Z,27.10
2023-01-29T17:56:55.889Z,27.93
2023-01-29T17:59:30.053Z,26.70
2023-01-29T18:04:29.168Z,25.13
2023-01-29T18:06:58.883Z,24.97
2023-01-29T18:09:28.333Z,29.17
2023-01-29T18:12:00.316Z,39.40
2023-01-29T18:14:29.960Z,31.47
2023-01-29T18:16:59.429Z,31.43
2023-01-29T18:19:30.591Z,28.50
2023-01-29T18:22:00.767Z,27.50
2023-01-29T18:24:31.027Z,26.57
2023-01-29T18:27:03.215Z,26.73
2023-01-29T18:29:34.555Z,26.03
2023-01-29T18:32:06.945Z,27.03
2023-01-29T18:34:43.579Z,24.27
2023-01-29T18:40:29.572Z,25.57
2023-01-29T18:43:11.379Z,30.83
2023-01-29T18:45:57.288Z,28.80
2023-01-29T18:48:41.743Z,28.40
2023-01-29T18:51:16.999Z,29.50
2023-01-29T18:56:28.653Z,26.10
2023-01-29T18:59:01.483Z,26.57
2023-01-29T19:01:47.557Z,29.23
2023-01-29T19:04:31.352Z,36.77
2023-01-29T19:07:05.301Z,32.27
2023-01-29T19:09:44.156Z,34.00
2023-01-29T19:12:30.162Z,28.17
2023-01-29T19:15:21.772Z,28.15
2023-01-29T19:18:00.249Z,26.67
2023-01-29T19:20:38.599Z,28.80
2023-01-29T19:23:13.748Z,26.37
2023-01-29T19:26:00.759Z,26.20
2023-01-29T19:28:38.994Z,26.03
2023-01-29T19:31:15.400Z,27.10
2023-01-29T19:33:52.993Z,26.07
2023-01-29T19:36:31.714Z,26.87
2023-01-29T19:39:05.089Z,23.90
2023-01-29T19:41:48.981Z,25.73
2023-01-29T19:44:32.006Z,23.93
2023-01-29T19:47:05.541Z,25.47
2023-01-29T19:52:50.227Z,23.40
2023-01-29T19:55:33.324Z,23.00
2023-01-29T19:58:07.497Z,28.40
2023-01-29T20:01:00.675Z,29.70
2023-01-29T20:03:33.349Z,31.65
2023-01-29T20:06:21.939Z,25.10
2023-01-29T20:09:10.303Z,24.40
2023-01-29T20:11:40.459Z,24.67
2023-01-29T20:14:19.195Z,25.03
2023-01-29T20:17:08.970Z,24.57
2023-01-29T20:22:37.842Z,23.20
2023-01-29T20:25:17.315Z,23.67
2023-01-29T20:27:57.696Z,23.07
2023-01-29T20:30:31.662Z,23.60
2023-01-29T20:33:16.810Z,24.03
2023-01-29T20:35:58.146Z,25.43
2023-01-29T20:38:34.261Z,24.67
2023-01-29T20:41:07.488Z,24.27
2023-01-29T20:43:41.840Z,22.70
2023-01-29T20:46:11.870Z,24.55
2023-01-29T20:48:44.190Z,22.63
2023-01-29T20:51:17.725Z,24.47
2023-01-29T20:53:55.079Z,26.10
2023-01-29T20:56:36.301Z,26.27
2023-01-29T20:59:13.183Z,23.93
2023-01-29T21:01:44.005Z,24.37
2023-01-29T21:04:33.932Z,23.43
2023-01-29T21:07:04.135Z,24.00
2023-01-29T21:09:38.095Z,23.73
2023-01-29T21:12:11.626Z,22.52
2023-01-29T21:14:43.403Z,23.33
2023-01-29T21:17:22.692Z,23.80
2023-01-29T21:20:03.823Z,24.10
2023-01-29T21:25:06.393Z,24.87
2023-01-29T21:27:36.254Z,23.55
2023-01-29T21:30:13.920Z,23.57
2023-01-29T21:32:45.658Z,24.67
2023-01-29T21:35:18.209Z,23.40
2023-01-29T21:37:52.177Z,25.93
2023-01-29T21:40:30.022Z,24.27
2023-01-29T21:43:11.516Z,23.73
2023-01-29T21:45:41.716Z,24.03
2023-01-29T21:48:13.730Z,23.97
2023-01-29T21:50:49.439Z,23.93
2023-01-29T21:53:22.881Z,23.53
2023-01-29T21:58:39.897Z,22.43
2023-01-29T22:01:18.420Z,24.10
2023-01-29T22:04:03.369Z,25.50
2023-01-29T22:06:34.005Z,25.07
2023-01-29T22:09:04.305Z,24.00
2023-01-29T22:11:41.355Z,25.00
2023-01-29T22:14:12.970Z,24.07
2023-01-29T22:16:45.178Z,24.70
2023-01-29T22:19:18.076Z,23.00
2023-01-29T22:21:51.144Z,22.97
2023-01-29T22:24:23.618Z,25.37
2023-01-29T22:26:58.781Z,24.57
2023-01-29T22:32:17.451Z,25.80
2023-01-29T22:34:57.756Z,24.50
2023-01-29T22:37:42.005Z,23.90
2023-01-29T22:40:20.106Z,24.33
2023-01-29T22:42:58.744Z,25.20
2023-01-29T22:45:46.863Z,24.93
2023-01-29T22:48:18.166Z,23.47
2023-01-29T22:51:08.645Z,24.17
2023-01-29T22:53:48.916Z,24.97
2023-01-29T22:56:36.513Z,23.43
2023-01-29T22:59:11.920Z,24.00
2023-01-29T23:01:41.074Z,22.67
2023-01-29T23:04:10.119Z,22.53
2023-01-29T23:06:39.166Z,23.20
2023-01-29T23:09:08.801Z,22.70
2023-01-29T23:11:37.951Z,23.50
2023-01-29T23:14:06.846Z,20.57
2023-01-29T23:16:35.795Z,23.13
2023-01-29T23:19:05.665Z,22.50
2023-01-29T23:21:34.826Z,22.30
2023-01-29T23:24:05.367Z,22.10
2023-01-29T23:26:53.088Z,22.80
2023-01-29T23:29:22.397Z,22.17
2023-01-29T23:31:51.884Z,21.33
2023-01-29T23:34:21.043Z,21.30
2023-01-29T23:36:50.416Z,20.97
2023-01-29T23:39:19.987Z,21.23
2023-01-29T23:41:48.999Z,19.30
2023-01-29T23:44:18.265Z,19.27
2023-01-29T23:46:47.518Z,21.50
2023-01-29T23:49:16.388Z,20.37
2023-01-29T23:51:46.922Z,18.70
2023-01-29T23:54:16.117Z,21.10
2023-01-29T23:56:45.879Z,19.33
2023-01-29T23:59:15.405Z,19.20
